Terminal Aerodrome Forecast
Issued by NWS Wilmington, OH

Current Version | Previous Version | Graphics & Text | Print | Product List | Glossary On
Versions: 1 2 3 4 5 6 7 8 9 10 11 12 13 14 15 16 17
000
FTUS41 KILN 212347
TAFDAY
TAF
KDAY 212347Z 2200/2224 21006KT P6SM BKN110
     FM220500 20007KT P6SM SCT250
     FM221500 22012G20KT P6SM BKN060
     FM221800 24014G22KT P6SM BKN050=

USA.gov is the U.S. government's official web portal to all federal, state and local government web resources and services.